logo tempoitalia

Diretta Meteo St Joseph Rosecrans Memorial, Stati Uniti (USA)lunedì 31 agosto ore 00:53

Mappa
Sereno 28 °C Sereno 24 Ore: T.min 25 T.max 36
Ponente Sud Km/h 13 Punto di rugiada: 17 °C Umidità: 51% Visibilità: 10 Km
Il sole sorge alle: 06:46 Il sole tramonta alle: 19:52
31 Agosto 2026 00:53 tempo osservato: Sereno Sereno 28 51 1011 vento: Nord S 13
30 Agosto 2026 23:53 tempo osservato: Sereno Sereno 28 51 1011 vento: Nord S 13
30 Agosto 2026 22:53 tempo osservato: Sereno Sereno 30 45 1010 vento: Nord S 18.5
30 Agosto 2026 21:53 tempo osservato: Sereno Sereno 30 45 1010 vento: Nord S 14.8
30 Agosto 2026 20:53 tempo osservato: Sereno Sereno 30 51 1010 vento: Nord S 13
30 Agosto 2026 19:53 tempo osservato: Sereno Sereno 31 48 1009 vento: Nord S 14.8
30 Agosto 2026 18:53 tempo osservato: Sereno Sereno 34 46 1009 vento: Nord S/SE 16.7
30 Agosto 2026 17:53 tempo osservato: Sereno Sereno 36 36 1009 vento: Nord S 24
30 Agosto 2026 16:53 tempo osservato: Sereno Sereno 36 39 1009 vento: Nord S 25.9
30 Agosto 2026 15:53 tempo osservato: Sereno Sereno 36 39 1009 vento: Nord S 31.5
30 Agosto 2026 14:53 tempo osservato: Sereno Sereno 36 39 1010 vento: Nord S 24
30 Agosto 2026 13:53 tempo osservato: Sereno Sereno 35 41 1010 vento: Nord S 18.5
30 Agosto 2026 12:53 tempo osservato: Sereno Sereno 34 41 1011 vento: Nord S/SO 24
30 Agosto 2026 11:53 tempo osservato: Sereno Sereno 32 46 1011 vento: Nord S 24
30 Agosto 2026 10:53 tempo osservato: Sereno Sereno 31 45 1011 vento: Nord S 25.9
30 Agosto 2026 09:53 tempo osservato: Nuvoloso Nuvoloso 29 51 1011 vento: Nord S/SO 24
30 Agosto 2026 08:53 tempo osservato: Sereno Sereno 27 54 1011 vento: Nord S 22.2
30 Agosto 2026 07:53 tempo osservato: Sereno Sereno 26 54 1011 vento: Nord S/SO 20.3
30 Agosto 2026 06:53 tempo osservato: Sereno Sereno 25 57 1012 vento: Nord S 18.5
30 Agosto 2026 05:53 tempo osservato: Sereno Sereno 26 54 1012 vento: Nord S 11.1
30 Agosto 2026 04:53 tempo osservato: Sereno Sereno 26 54 1012 vento: Nord S 14.8
30 Agosto 2026 03:53 tempo osservato: Sereno Sereno 27 50 1012 vento: Nord S 20.3
30 Agosto 2026 02:53 tempo osservato: Sereno Sereno 26 57 1011 vento: Nord S 13
30 Agosto 2026 01:53 tempo osservato: Sereno Sereno 26 61 1011 vento: Nord S 13